sensor_id;sensor_type;location;lat;lon;timestamp;pressure;altitude;pressure_sealevel;temperature;humidity
77855;BME280;67046;50.088;14.336;2023-04-03T00:00:11;98271.21;;;4.44;70.40
77855;BME280;67046;50.088;14.336;2023-04-03T00:01:04;98272.56;;;4.43;70.42
77855;BME280;67046;50.088;14.336;2023-04-03T00:01:36;98270.41;;;4.40;70.63
77855;BME280;67046;50.088;14.336;2023-04-03T00:02:09;98271.30;;;4.39;70.59
77855;BME280;67046;50.088;14.336;2023-04-03T00:02:41;98271.78;;;4.38;70.28
77855;BME280;67046;50.088;14.336;2023-04-03T00:03:13;98272.74;;;4.37;70.51
77855;BME280;67046;50.088;14.336;2023-04-03T00:03:45;98269.77;;;4.37;70.65
77855;BME280;67046;50.088;14.336;2023-04-03T00:04:17;98269.71;;;4.37;70.64
77855;BME280;67046;50.088;14.336;2023-04-03T00:04:49;98275.33;;;4.38;70.63
77855;BME280;67046;50.088;14.336;2023-04-03T00:05:21;98271.99;;;4.39;70.62
77855;BME280;67046;50.088;14.336;2023-04-03T00:05:54;98267.88;;;4.40;70.77
77855;BME280;67046;50.088;14.336;2023-04-03T00:06:26;98273.77;;;4.40;70.51
77855;BME280;67046;50.088;14.336;2023-04-03T00:06:58;98269.05;;;4.40;70.55
77855;BME280;67046;50.088;14.336;2023-04-03T00:07:30;98268.39;;;4.40;70.68
77855;BME280;67046;50.088;14.336;2023-04-03T00:08:02;98266.14;;;4.40;70.62
77855;BME280;67046;50.088;14.336;2023-04-03T00:08:36;98270.19;;;4.39;70.42
77855;BME280;67046;50.088;14.336;2023-04-03T00:09:08;98267.72;;;4.38;70.32
77855;BME280;67046;50.088;14.336;2023-04-03T00:09:40;98267.55;;;4.38;70.23
77855;BME280;67046;50.088;14.336;2023-04-03T00:10:12;98272.34;;;4.37;70.35
77855;BME280;67046;50.088;14.336;2023-04-03T00:10:45;98269.48;;;4.37;70.53
77855;BME280;67046;50.088;14.336;2023-04-03T00:11:17;98268.76;;;4.37;70.55
77855;BME280;67046;50.088;14.336;2023-04-03T00:11:49;98267.46;;;4.34;70.33
77855;BME280;67046;50.088;14.336;2023-04-03T00:12:21;98265.42;;;4.33;70.45
77855;BME280;67046;50.088;14.336;2023-04-03T00:12:53;98266.89;;;4.32;70.56
77855;BME280;67046;50.088;14.336;2023-04-03T00:13:25;98264.37;;;4.31;70.65
77855;BME280;67046;50.088;14.336;2023-04-03T00:13:57;98269.10;;;4.31;70.49
77855;BME280;67046;50.088;14.336;2023-04-03T00:14:29;98268.58;;;4.31;70.35
77855;BME280;67046;50.088;14.336;2023-04-03T00:15:01;98265.45;;;4.31;70.48
77855;BME280;67046;50.088;14.336;2023-04-03T00:15:34;98268.59;;;4.31;70.52
77855;BME280;67046;50.088;14.336;2023-04-03T00:16:08;98268.55;;;4.28;70.39
77855;BME280;67046;50.088;14.336;2023-04-03T00:16:40;98266.33;;;4.28;70.36
77855;BME280;67046;50.088;14.336;2023-04-03T00:17:12;98266.81;;;4.28;70.35
77855;BME280;67046;50.088;14.336;2023-04-03T00:17:44;98267.41;;;4.29;70.34
77855;BME280;67046;50.088;14.336;2023-04-03T00:18:17;98267.56;;;4.29;70.34
77855;BME280;67046;50.088;14.336;2023-04-03T00:18:49;98274.24;;;4.30;70.49
77855;BME280;67046;50.088;14.336;2023-04-03T00:19:21;98272.80;;;4.31;70.57
77855;BME280;67046;50.088;14.336;2023-04-03T00:19:53;98274.73;;;4.30;70.52
77855;BME280;67046;50.088;14.336;2023-04-03T00:20:25;98274.31;;;4.31;70.38
77855;BME280;67046;50.088;14.336;2023-04-03T00:20:58;98273.39;;;4.31;70.43
77855;BME280;67046;50.088;14.336;2023-04-03T00:21:31;98277.35;;;4.30;70.53
77855;BME280;67046;50.088;14.336;2023-04-03T00:22:03;98278.04;;;4.31;70.52
77855;BME280;67046;50.088;14.336;2023-04-03T00:22:35;98275.30;;;4.30;70.35
77855;BME280;67046;50.088;14.336;2023-04-03T00:23:07;98277.23;;;4.30;70.36
77855;BME280;67046;50.088;14.336;2023-04-03T00:23:39;98276.70;;;4.30;70.41
77855;BME280;67046;50.088;14.336;2023-04-03T00:24:11;98273.80;;;4.30;70.27
77855;BME280;67046;50.088;14.336;2023-04-03T00:24:43;98278.02;;;4.29;70.21
77855;BME280;67046;50.088;14.336;2023-04-03T00:25:15;98274.92;;;4.29;70.25
77855;BME280;67046;50.088;14.336;2023-04-03T00:25:47;98278.31;;;4.30;70.12
77855;BME280;67046;50.088;14.336;2023-04-03T00:26:19;98271.38;;;4.30;70.05
77855;BME280;67046;50.088;14.336;2023-04-03T00:26:51;98277.38;;;4.29;70.15
77855;BME280;67046;50.088;14.336;2023-04-03T00:27:23;98277.20;;;4.26;70.35
77855;BME280;67046;50.088;14.336;2023-04-03T00:27:55;98277.50;;;4.25;70.30
77855;BME280;67046;50.088;14.336;2023-04-03T00:28:27;98274.77;;;4.24;70.22
77855;BME280;67046;50.088;14.336;2023-04-03T00:28:59;98279.11;;;4.24;70.29
77855;BME280;67046;50.088;14.336;2023-04-03T00:29:31;98276.38;;;4.24;70.11
77855;BME280;67046;50.088;14.336;2023-04-03T00:30:08;98279.30;;;4.23;70.01
77855;BME280;67046;50.088;14.336;2023-04-03T00:30:40;98279.40;;;4.22;70.04
77855;BME280;67046;50.088;14.336;2023-04-03T00:31:15;98275.36;;;4.21;70.17
77855;BME280;67046;50.088;14.336;2023-04-03T00:31:47;98273.58;;;4.20;70.17
77855;BME280;67046;50.088;14.336;2023-04-03T00:32:19;98274.02;;;4.19;69.98
77855;BME280;67046;50.088;14.336;2023-04-03T00:32:52;98277.64;;;4.18;70.09
77855;BME280;67046;50.088;14.336;2023-04-03T00:33:24;98277.63;;;4.18;70.25
77855;BME280;67046;50.088;14.336;2023-04-03T00:33:56;98277.31;;;4.19;70.32
77855;BME280;67046;50.088;14.336;2023-04-03T00:34:28;98276.48;;;4.20;70.24
77855;BME280;67046;50.088;14.336;2023-04-03T00:35:00;98277.24;;;4.21;70.29
77855;BME280;67046;50.088;14.336;2023-04-03T00:35:34;98278.29;;;4.23;70.44
77855;BME280;67046;50.088;14.336;2023-04-03T00:36:08;98273.80;;;4.24;70.44
77855;BME280;67046;50.088;14.336;2023-04-03T00:36:40;98281.54;;;4.25;70.18
77855;BME280;67046;50.088;14.336;2023-04-03T00:37:12;98279.44;;;4.25;70.08
77855;BME280;67046;50.088;14.336;2023-04-03T00:37:45;98279.27;;;4.26;70.39
77855;BME280;67046;50.088;14.336;2023-04-03T00:38:17;98283.21;;;4.27;70.07
77855;BME280;67046;50.088;14.336;2023-04-03T00:38:49;98276.05;;;4.27;70.20
77855;BME280;67046;50.088;14.336;2023-04-03T00:39:21;98281.56;;;4.27;70.01
77855;BME280;67046;50.088;14.336;2023-04-03T00:39:53;98279.27;;;4.27;69.83
77855;BME280;67046;50.088;14.336;2023-04-03T00:40:26;98280.33;;;4.27;69.86
77855;BME280;67046;50.088;14.336;2023-04-03T00:40:59;98283.89;;;4.28;70.09
77855;BME280;67046;50.088;14.336;2023-04-03T00:41:31;98281.11;;;4.28;69.93
77855;BME280;67046;50.088;14.336;2023-04-03T00:42:03;98282.84;;;4.29;69.72
77855;BME280;67046;50.088;14.336;2023-04-03T00:42:43;98282.21;;;4.28;69.62
77855;BME280;67046;50.088;14.336;2023-04-03T00:43:18;98285.64;;;4.27;69.58
77855;BME280;67046;50.088;14.336;2023-04-03T00:43:51;98286.83;;;4.26;69.65
77855;BME280;67046;50.088;14.336;2023-04-03T00:45:39;98279.87;;;4.24;69.54
77855;BME280;67046;50.088;14.336;2023-04-03T00:46:12;98289.03;;;4.25;69.63
77855;BME280;67046;50.088;14.336;2023-04-03T00:46:44;98283.70;;;4.24;69.68
77855;BME280;67046;50.088;14.336;2023-04-03T00:47:17;98283.80;;;4.25;69.68
77855;BME280;67046;50.088;14.336;2023-04-03T00:47:49;98285.30;;;4.24;69.43
77855;BME280;67046;50.088;14.336;2023-04-03T00:48:56;98281.40;;;4.23;69.81
77855;BME280;67046;50.088;14.336;2023-04-03T00:49:28;98285.94;;;4.23;69.49
77855;BME280;67046;50.088;14.336;2023-04-03T00:50:01;98284.24;;;4.22;69.52
77855;BME280;67046;50.088;14.336;2023-04-03T00:50:37;98289.52;;;4.22;69.71
77855;BME280;67046;50.088;14.336;2023-04-03T00:51:16;98283.30;;;4.22;69.74
77855;BME280;67046;50.088;14.336;2023-04-03T00:51:50;98284.34;;;4.22;69.69
77855;BME280;67046;50.088;14.336;2023-04-03T00:52:28;98284.01;;;4.20;69.56
77855;BME280;67046;50.088;14.336;2023-04-03T00:53:02;98287.63;;;4.20;69.58
77855;BME280;67046;50.088;14.336;2023-04-03T00:53:39;98284.20;;;4.20;69.30
77855;BME280;67046;50.088;14.336;2023-04-03T00:54:12;98282.02;;;4.19;69.56
77855;BME280;67046;50.088;14.336;2023-04-03T00:54:45;98286.91;;;4.19;69.63
77855;BME280;67046;50.088;14.336;2023-04-03T00:55:18;98280.61;;;4.16;69.30
77855;BME280;67046;50.088;14.336;2023-04-03T00:55:51;98282.16;;;4.15;69.28
77855;BME280;67046;50.088;14.336;2023-04-03T00:56:26;98282.04;;;4.15;69.14
77855;BME280;67046;50.088;14.336;2023-04-03T00:56:59;98285.13;;;4.14;69.18
77855;BME280;67046;50.088;14.336;2023-04-03T00:57:31;98280.11;;;4.13;69.41
77855;BME280;67046;50.088;14.336;2023-04-03T00:58:05;98286.25;;;4.11;69.39
77855;BME280;67046;50.088;14.336;2023-04-03T00:59:16;98283.11;;;4.11;69.28
77855;BME280;67046;50.088;14.336;2023-04-03T00:59:49;98285.52;;;4.08;69.22
77855;BME280;67046;50.088;14.336;2023-04-03T01:00:23;98288.55;;;4.06;69.50
77855;BME280;67046;50.088;14.336;2023-04-03T01:00:58;98291.77;;;4.06;69.15
77855;BME280;67046;50.088;14.336;2023-04-03T01:01:31;98286.63;;;4.05;69.26
77855;BME280;67046;50.088;14.336;2023-04-03T01:02:03;98288.25;;;4.03;69.30
77855;BME280;67046;50.088;14.336;2023-04-03T01:02:36;98289.80;;;4.02;69.30
77855;BME280;67046;50.088;14.336;2023-04-03T01:03:08;98285.93;;;4.01;69.31
77855;BME280;67046;50.088;14.336;2023-04-03T01:03:41;98285.50;;;4.00;69.16
77855;BME280;67046;50.088;14.336;2023-04-03T01:04:32;98283.84;;;3.99;69.22
77855;BME280;67046;50.088;14.336;2023-04-03T01:05:05;98285.65;;;3.96;68.82
77855;BME280;67046;50.088;14.336;2023-04-03T01:05:38;98284.92;;;3.93;68.64
77855;BME280;67046;50.088;14.336;2023-04-03T01:06:12;98289.30;;;3.93;68.76
77855;BME280;67046;50.088;14.336;2023-04-03T01:06:44;98284.05;;;3.91;68.78
77855;BME280;67046;50.088;14.336;2023-04-03T01:07:20;98287.52;;;3.90;68.63
77855;BME280;67046;50.088;14.336;2023-04-03T01:07:54;98285.28;;;3.88;68.63
77855;BME280;67046;50.088;14.336;2023-04-03T01:08:26;98291.52;;;3.87;68.47
77855;BME280;67046;50.088;14.336;2023-04-03T01:08:59;98295.67;;;3.86;68.25
77855;BME280;67046;50.088;14.336;2023-04-03T01:09:33;98291.38;;;3.84;68.21
77855;BME280;67046;50.088;14.336;2023-04-03T01:10:10;98293.11;;;3.82;67.98
77855;BME280;67046;50.088;14.336;2023-04-03T01:10:46;98296.20;;;3.80;67.91
77855;BME280;67046;50.088;14.336;2023-04-03T01:11:18;98289.44;;;3.78;67.84
77855;BME280;67046;50.088;14.336;2023-04-03T01:11:50;98291.20;;;3.77;67.75
77855;BME280;67046;50.088;14.336;2023-04-03T01:12:24;98288.90;;;3.75;67.90
77855;BME280;67046;50.088;14.336;2023-04-03T01:12:57;98289.75;;;3.74;67.70
77855;BME280;67046;50.088;14.336;2023-04-03T01:13:30;98291.47;;;3.73;67.73
77855;BME280;67046;50.088;14.336;2023-04-03T01:14:02;98290.05;;;3.70;67.73
77855;BME280;67046;50.088;14.336;2023-04-03T01:14:34;98290.56;;;3.67;67.76
77855;BME280;67046;50.088;14.336;2023-04-03T01:15:12;98289.96;;;3.65;67.67
77855;BME280;67046;50.088;14.336;2023-04-03T01:15:45;98293.30;;;3.63;67.51
77855;BME280;67046;50.088;14.336;2023-04-03T01:16:17;98290.16;;;3.63;67.52
77855;BME280;67046;50.088;14.336;2023-04-03T01:16:56;98290.29;;;3.63;67.53
77855;BME280;67046;50.088;14.336;2023-04-03T01:17:46;98290.27;;;3.64;67.15
77855;BME280;67046;50.088;14.336;2023-04-03T01:18:20;98291.83;;;3.62;67.11
77855;BME280;67046;50.088;14.336;2023-04-03T01:18:52;98291.95;;;3.61;67.09
77855;BME280;67046;50.088;14.336;2023-04-03T01:19:24;98291.63;;;3.61;66.94
77855;BME280;67046;50.088;14.336;2023-04-03T01:21:23;98295.04;;;3.59;66.61
77855;BME280;67046;50.088;14.336;2023-04-03T01:22:42;98293.41;;;3.56;66.16
77855;BME280;67046;50.088;14.336;2023-04-03T01:23:03;98301.69;;;3.52;65.87
77855;BME280;67046;50.088;14.336;2023-04-03T01:23:56;98296.70;;;3.50;66.23
77855;BME280;67046;50.088;14.336;2023-04-03T01:24:36;98301.68;;;3.46;66.16
77855;BME280;67046;50.088;14.336;2023-04-03T01:25:10;98297.59;;;3.43;66.08
77855;BME280;67046;50.088;14.336;2023-04-03T01:25:51;98306.30;;;3.42;65.96
77855;BME280;67046;50.088;14.336;2023-04-03T01:26:24;98299.35;;;3.41;65.22
77855;BME280;67046;50.088;14.336;2023-04-03T01:26:57;98304.77;;;3.38;65.48
77855;BME280;67046;50.088;14.336;2023-04-03T01:27:29;98304.02;;;3.37;65.34
77855;BME280;67046;50.088;14.336;2023-04-03T01:28:03;98309.80;;;3.36;65.25
77855;BME280;67046;50.088;14.336;2023-04-03T01:28:35;98307.11;;;3.35;64.84
77855;BME280;67046;50.088;14.336;2023-04-03T01:29:07;98311.05;;;3.34;65.11
77855;BME280;67046;50.088;14.336;2023-04-03T01:29:40;98307.20;;;3.33;65.11
77855;BME280;67046;50.088;14.336;2023-04-03T01:30:17;98311.15;;;3.33;65.13
77855;BME280;67046;50.088;14.336;2023-04-03T01:31:10;98306.58;;;3.32;64.75
77855;BME280;67046;50.088;14.336;2023-04-03T01:31:48;98309.70;;;3.29;64.92
77855;BME280;67046;50.088;14.336;2023-04-03T01:32:20;98312.13;;;3.28;65.11
77855;BME280;67046;50.088;14.336;2023-04-03T01:32:52;98318.56;;;3.28;65.08
77855;BME280;67046;50.088;14.336;2023-04-03T01:33:24;98317.75;;;3.27;65.07
77855;BME280;67046;50.088;14.336;2023-04-03T01:33:56;98317.65;;;3.27;65.11
77855;BME280;67046;50.088;14.336;2023-04-03T01:34:29;98315.40;;;3.26;64.87
77855;BME280;67046;50.088;14.336;2023-04-03T01:35:02;98317.16;;;3.26;65.12
77855;BME280;67046;50.088;14.336;2023-04-03T01:35:34;98320.98;;;3.26;65.15
77855;BME280;67046;50.088;14.336;2023-04-03T01:36:06;98321.60;;;3.27;65.11
77855;BME280;67046;50.088;14.336;2023-04-03T01:36:39;98322.45;;;3.27;65.27
77855;BME280;67046;50.088;14.336;2023-04-03T01:37:11;98319.88;;;3.27;64.76
77855;BME280;67046;50.088;14.336;2023-04-03T01:37:43;98320.72;;;3.27;64.38
77855;BME280;67046;50.088;14.336;2023-04-03T01:38:15;98317.79;;;3.25;64.18
77855;BME280;67046;50.088;14.336;2023-04-03T01:38:47;98322.61;;;3.23;64.22
77855;BME280;67046;50.088;14.336;2023-04-03T01:39:19;98323.92;;;3.20;64.30
77855;BME280;67046;50.088;14.336;2023-04-03T01:39:52;98324.08;;;3.16;64.55
77855;BME280;67046;50.088;14.336;2023-04-03T01:40:24;98323.09;;;3.14;64.49
77855;BME280;67046;50.088;14.336;2023-04-03T01:40:57;98320.77;;;3.13;64.30
77855;BME280;67046;50.088;14.336;2023-04-03T01:41:29;98322.05;;;3.11;64.23
77855;BME280;67046;50.088;14.336;2023-04-03T01:42:01;98324.63;;;3.10;64.31
77855;BME280;67046;50.088;14.336;2023-04-03T01:42:33;98322.77;;;3.06;63.91
77855;BME280;67046;50.088;14.336;2023-04-03T01:43:05;98329.62;;;3.04;64.21
77855;BME280;67046;50.088;14.336;2023-04-03T01:43:37;98327.68;;;3.03;64.27
77855;BME280;67046;50.088;14.336;2023-04-03T01:44:09;98325.19;;;3.02;64.22
77855;BME280;67046;50.088;14.336;2023-04-03T01:44:41;98332.58;;;3.01;64.22
77855;BME280;67046;50.088;14.336;2023-04-03T01:45:13;98331.98;;;2.97;64.31
77855;BME280;67046;50.088;14.336;2023-04-03T01:45:45;98327.44;;;2.96;64.16
77855;BME280;67046;50.088;14.336;2023-04-03T01:46:19;98335.55;;;2.95;64.32
77855;BME280;67046;50.088;14.336;2023-04-03T01:46:51;98334.31;;;2.93;64.05
77855;BME280;67046;50.088;14.336;2023-04-03T01:47:23;98337.96;;;2.93;64.13
77855;BME280;67046;50.088;14.336;2023-04-03T01:47:55;98340.83;;;2.92;64.25
77855;BME280;67046;50.088;14.336;2023-04-03T01:48:27;98335.32;;;2.92;64.05
77855;BME280;67046;50.088;14.336;2023-04-03T01:48:59;98338.86;;;2.92;64.41
77855;BME280;67046;50.088;14.336;2023-04-03T01:49:31;98342.71;;;2.91;64.43
77855;BME280;67046;50.088;14.336;2023-04-03T01:50:03;98338.40;;;2.91;64.29
77855;BME280;67046;50.088;14.336;2023-04-03T01:50:35;98339.11;;;2.91;64.16
77855;BME280;67046;50.088;14.336;2023-04-03T01:51:07;98340.34;;;2.88;64.08
77855;BME280;67046;50.088;14.336;2023-04-03T01:51:39;98339.76;;;2.87;64.29
77855;BME280;67046;50.088;14.336;2023-04-03T01:52:11;98342.85;;;2.87;64.20
77855;BME280;67046;50.088;14.336;2023-04-03T01:52:43;98342.33;;;2.87;64.32
77855;BME280;67046;50.088;14.336;2023-04-03T01:53:15;98342.50;;;2.85;64.38
77855;BME280;67046;50.088;14.336;2023-04-03T01:53:47;98342.09;;;2.84;64.29
77855;BME280;67046;50.088;14.336;2023-04-03T01:54:19;98341.02;;;2.83;64.37
77855;BME280;67046;50.088;14.336;2023-04-03T01:54:51;98342.65;;;2.82;64.31
77855;BME280;67046;50.088;14.336;2023-04-03T01:55:23;98342.80;;;2.81;64.53
77855;BME280;67046;50.088;14.336;2023-04-03T01:55:55;98346.86;;;2.81;64.63
77855;BME280;67046;50.088;14.336;2023-04-03T01:56:27;98341.61;;;2.81;64.65
77855;BME280;67046;50.088;14.336;2023-04-03T01:56:59;98345.42;;;2.81;64.69
77855;BME280;67046;50.088;14.336;2023-04-03T01:57:31;98340.23;;;2.81;64.70
77855;BME280;67046;50.088;14.336;2023-04-03T01:58:03;98344.44;;;2.80;64.58
77855;BME280;67046;50.088;14.336;2023-04-03T01:58:35;98342.69;;;2.79;64.24
77855;BME280;67046;50.088;14.336;2023-04-03T01:59:07;98340.60;;;2.78;64.11
77855;BME280;67046;50.088;14.336;2023-04-03T01:59:39;98342.50;;;2.76;64.54
77855;BME280;67046;50.088;14.336;2023-04-03T02:00:12;98342.31;;;2.75;64.38
77855;BME280;67046;50.088;14.336;2023-04-03T02:00:44;98342.70;;;2.73;64.28
77855;BME280;67046;50.088;14.336;2023-04-03T02:01:16;98346.67;;;2.72;64.63
77855;BME280;67046;50.088;14.336;2023-04-03T02:01:48;98343.94;;;2.71;64.36
77855;BME280;67046;50.088;14.336;2023-04-03T02:02:20;98343.50;;;2.69;64.19
77855;BME280;67046;50.088;14.336;2023-04-03T02:02:52;98341.35;;;2.68;64.53
77855;BME280;67046;50.088;14.336;2023-04-03T02:03:24;98338.44;;;2.67;64.49
77855;BME280;67046;50.088;14.336;2023-04-03T02:03:57;98341.88;;;2.66;64.50
77855;BME280;67046;50.088;14.336;2023-04-03T02:04:29;98347.98;;;2.64;64.37
77855;BME280;67046;50.088;14.336;2023-04-03T02:05:00;98339.95;;;2.63;64.20
77855;BME280;67046;50.088;14.336;2023-04-03T02:05:32;98345.17;;;2.63;64.35
77855;BME280;67046;50.088;14.336;2023-04-03T02:06:05;98344.31;;;2.63;64.17
77855;BME280;67046;50.088;14.336;2023-04-03T02:06:37;98341.79;;;2.62;64.22
77855;BME280;67046;50.088;14.336;2023-04-03T02:07:09;98340.14;;;2.61;64.04
77855;BME280;67046;50.088;14.336;2023-04-03T02:07:41;98343.21;;;2.61;64.25
77855;BME280;67046;50.088;14.336;2023-04-03T02:08:13;98348.61;;;2.59;64.07
77855;BME280;67046;50.088;14.336;2023-04-03T02:08:45;98349.58;;;2.58;64.16
77855;BME280;67046;50.088;14.336;2023-04-03T02:09:17;98341.92;;;2.53;64.01
77855;BME280;67046;50.088;14.336;2023-04-03T02:09:49;98344.73;;;2.51;64.30
77855;BME280;67046;50.088;14.336;2023-04-03T02:10:21;98343.06;;;2.51;64.50
77855;BME280;67046;50.088;14.336;2023-04-03T02:10:53;98339.98;;;2.51;63.93
77855;BME280;67046;50.088;14.336;2023-04-03T02:11:25;98348.27;;;2.50;63.90
77855;BME280;67046;50.088;14.336;2023-04-03T02:11:57;98341.21;;;2.48;63.73
77855;BME280;67046;50.088;14.336;2023-04-03T02:12:29;98345.40;;;2.47;64.08
77855;BME280;67046;50.088;14.336;2023-04-03T02:13:04;98346.34;;;2.46;64.18
77855;BME280;67046;50.088;14.336;2023-04-03T02:13:36;98346.02;;;2.45;63.87
77855;BME280;67046;50.088;14.336;2023-04-03T02:14:08;98344.48;;;2.44;64.24
77855;BME280;67046;50.088;14.336;2023-04-03T02:14:40;98346.84;;;2.43;64.26
77855;BME280;67046;50.088;14.336;2023-04-03T02:15:12;98344.15;;;2.43;64.22
77855;BME280;67046;50.088;14.336;2023-04-03T02:15:44;98345.98;;;2.42;64.13
77855;BME280;67046;50.088;14.336;2023-04-03T02:16:17;98349.23;;;2.41;64.31
77855;BME280;67046;50.088;14.336;2023-04-03T02:16:49;98341.50;;;2.40;64.06
77855;BME280;67046;50.088;14.336;2023-04-03T02:17:21;98344.56;;;2.39;64.05
77855;BME280;67046;50.088;14.336;2023-04-03T02:17:53;98342.22;;;2.38;64.26
77855;BME280;67046;50.088;14.336;2023-04-03T02:18:25;98342.80;;;2.37;64.11
77855;BME280;67046;50.088;14.336;2023-04-03T02:18:57;98346.36;;;2.37;64.26
77855;BME280;67046;50.088;14.336;2023-04-03T02:19:29;98345.73;;;2.36;63.95
77855;BME280;67046;50.088;14.336;2023-04-03T02:20:01;98347.02;;;2.35;63.98
77855;BME280;67046;50.088;14.336;2023-04-03T02:20:33;98347.05;;;2.35;64.15
77855;BME280;67046;50.088;14.336;2023-04-03T02:21:05;98348.13;;;2.34;64.18
77855;BME280;67046;50.088;14.336;2023-04-03T02:21:37;98346.91;;;2.34;64.22
77855;BME280;67046;50.088;14.336;2023-04-03T02:22:09;98343.13;;;2.34;64.00
77855;BME280;67046;50.088;14.336;2023-04-03T02:22:41;98342.09;;;2.32;64.06
77855;BME280;67046;50.088;14.336;2023-04-03T02:23:13;98347.86;;;2.32;64.27
77855;BME280;67046;50.088;14.336;2023-04-03T02:23:45;98348.84;;;2.31;64.05
77855;BME280;67046;50.088;14.336;2023-04-03T02:24:17;98349.30;;;2.30;64.33
77855;BME280;67046;50.088;14.336;2023-04-03T02:24:49;98348.36;;;2.29;64.24
77855;BME280;67046;50.088;14.336;2023-04-03T02:25:21;98349.92;;;2.27;64.04
77855;BME280;67046;50.088;14.336;2023-04-03T02:25:53;98345.30;;;2.25;63.75
77855;BME280;67046;50.088;14.336;2023-04-03T02:26:25;98352.41;;;2.24;63.91
77855;BME280;67046;50.088;14.336;2023-04-03T02:26:58;98345.05;;;2.23;63.86
77855;BME280;67046;50.088;14.336;2023-04-03T02:27:30;98348.20;;;2.23;63.84
77855;BME280;67046;50.088;14.336;2023-04-03T02:28:03;98348.41;;;2.22;63.53
77855;BME280;67046;50.088;14.336;2023-04-03T02:28:35;98353.00;;;2.21;63.39
77855;BME280;67046;50.088;14.336;2023-04-03T02:29:07;98351.23;;;2.20;63.53
77855;BME280;67046;50.088;14.336;2023-04-03T02:29:39;98353.27;;;2.19;63.64
77855;BME280;67046;50.088;14.336;2023-04-03T02:30:11;98352.02;;;2.19;63.51
77855;BME280;67046;50.088;14.336;2023-04-03T02:30:44;98348.31;;;2.18;63.62
77855;BME280;67046;50.088;14.336;2023-04-03T02:31:17;98352.29;;;2.19;63.73
77855;BME280;67046;50.088;14.336;2023-04-03T02:31:50;98345.93;;;2.18;63.60
77855;BME280;67046;50.088;14.336;2023-04-03T02:32:22;98353.27;;;2.18;63.53
77855;BME280;67046;50.088;14.336;2023-04-03T02:32:54;98352.27;;;2.16;63.50
77855;BME280;67046;50.088;14.336;2023-04-03T02:33:26;98350.89;;;2.14;63.47
77855;BME280;67046;50.088;14.336;2023-04-03T02:33:58;98350.95;;;2.13;63.60
77855;BME280;67046;50.088;14.336;2023-04-03T02:34:30;98352.61;;;2.12;63.34
77855;BME280;67046;50.088;14.336;2023-04-03T02:35:02;98352.94;;;2.11;63.37
77855;BME280;67046;50.088;14.336;2023-04-03T02:35:34;98352.13;;;2.09;63.63
77855;BME280;67046;50.088;14.336;2023-04-03T02:36:07;98350.66;;;2.08;63.48
77855;BME280;67046;50.088;14.336;2023-04-03T02:36:39;98353.18;;;2.07;63.53
77855;BME280;67046;50.088;14.336;2023-04-03T02:37:11;98354.19;;;2.06;63.53
77855;BME280;67046;50.088;14.336;2023-04-03T02:37:43;98351.08;;;2.06;63.43
77855;BME280;67046;50.088;14.336;2023-04-03T02:38:15;98353.27;;;2.05;63.44
77855;BME280;67046;50.088;14.336;2023-04-03T02:38:47;98360.90;;;2.03;63.48
77855;BME280;67046;50.088;14.336;2023-04-03T02:39:20;98356.63;;;2.03;63.57
77855;BME280;67046;50.088;14.336;2023-04-03T02:39:52;98356.48;;;2.01;63.52
77855;BME280;67046;50.088;14.336;2023-04-03T02:40:24;98359.86;;;2.00;63.50
77855;BME280;67046;50.088;14.336;2023-04-03T02:41:03;98357.75;;;1.99;63.43
77855;BME280;67046;50.088;14.336;2023-04-03T02:41:36;98358.11;;;1.95;63.37
77855;BME280;67046;50.088;14.336;2023-04-03T02:42:08;98360.02;;;1.92;63.28
77855;BME280;67046;50.088;14.336;2023-04-03T02:42:40;98363.45;;;1.90;63.37
77855;BME280;67046;50.088;14.336;2023-04-03T02:43:12;98359.17;;;1.87;63.45
77855;BME280;67046;50.088;14.336;2023-04-03T02:43:44;98358.75;;;1.85;63.52
77855;BME280;67046;50.088;14.336;2023-04-03T02:44:16;98355.72;;;1.82;63.34
77855;BME280;67046;50.088;14.336;2023-04-03T02:44:48;98362.89;;;1.80;63.58
77855;BME280;67046;50.088;14.336;2023-04-03T02:45:20;98360.20;;;1.79;63.56
77855;BME280;67046;50.088;14.336;2023-04-03T02:45:52;98361.86;;;1.78;63.47
77855;BME280;67046;50.088;14.336;2023-04-03T02:46:24;98364.38;;;1.74;63.58
77855;BME280;67046;50.088;14.336;2023-04-03T02:46:56;98367.05;;;1.70;63.92
77855;BME280;67046;50.088;14.336;2023-04-03T02:47:28;98368.31;;;1.68;63.88
77855;BME280;67046;50.088;14.336;2023-04-03T02:48:00;98364.98;;;1.65;63.94
77855;BME280;67046;50.088;14.336;2023-04-03T02:48:32;98368.21;;;1.64;64.02
77855;BME280;67046;50.088;14.336;2023-04-03T02:49:04;98367.83;;;1.63;63.97
77855;BME280;67046;50.088;14.336;2023-04-03T02:49:37;98369.51;;;1.62;63.95
77855;BME280;67046;50.088;14.336;2023-04-03T02:50:09;98371.85;;;1.61;63.97
77855;BME280;67046;50.088;14.336;2023-04-03T02:50:41;98369.90;;;1.60;63.87
77855;BME280;67046;50.088;14.336;2023-04-03T02:51:13;98368.92;;;1.59;64.10
77855;BME280;67046;50.088;14.336;2023-04-03T02:51:45;98368.83;;;1.59;63.93
77855;BME280;67046;50.088;14.336;2023-04-03T02:52:17;98370.26;;;1.58;63.77
77855;BME280;67046;50.088;14.336;2023-04-03T02:52:49;98371.59;;;1.55;64.02
77855;BME280;67046;50.088;14.336;2023-04-03T02:53:21;98371.02;;;1.54;64.10
77855;BME280;67046;50.088;14.336;2023-04-03T02:53:54;98372.98;;;1.52;63.96
77855;BME280;67046;50.088;14.336;2023-04-03T02:54:26;98373.47;;;1.51;64.18
77855;BME280;67046;50.088;14.336;2023-04-03T02:55:00;98372.95;;;1.51;64.04
77855;BME280;67046;50.088;14.336;2023-04-03T02:55:32;98373.86;;;1.51;64.24
77855;BME280;67046;50.088;14.336;2023-04-03T02:56:04;98378.08;;;1.50;64.18
77855;BME280;67046;50.088;14.336;2023-04-03T02:56:36;98374.33;;;1.49;64.27
77855;BME280;67046;50.088;14.336;2023-04-03T02:57:08;98376.42;;;1.49;64.45
77855;BME280;67046;50.088;14.336;2023-04-03T02:57:40;98377.00;;;1.49;64.32
77855;BME280;67046;50.088;14.336;2023-04-03T02:58:12;98379.75;;;1.48;64.37
77855;BME280;67046;50.088;14.336;2023-04-03T02:58:44;98377.16;;;1.45;64.19